sensor_id;sensor_type;location;lat;lon;timestamp;pressure;altitude;pressure_sealevel;temperature;humidity
72558;BME280;60583;50.094;8.748;2022-11-14T00:00:22;100603.25;;;5.55;87.81
72558;BME280;60583;50.094;8.748;2022-11-14T00:02:47;100611.13;;;5.47;88.89
72558;BME280;60583;50.094;8.748;2022-11-14T00:05:13;100596.25;;;5.38;89.32
72558;BME280;60583;50.094;8.748;2022-11-14T00:07:38;100608.34;;;5.48;89.08
72558;BME280;60583;50.094;8.748;2022-11-14T00:10:04;100601.91;;;5.51;89.24
72558;BME280;60583;50.094;8.748;2022-11-14T00:12:29;100607.56;;;5.64;89.44
72558;BME280;60583;50.094;8.748;2022-11-14T00:14:55;100601.47;;;5.79;88.68
72558;BME280;60583;50.094;8.748;2022-11-14T00:17:20;100610.81;;;6.00;87.81
72558;BME280;60583;50.094;8.748;2022-11-14T00:19:46;100602.06;;;6.15;87.00
72558;BME280;60583;50.094;8.748;2022-11-14T00:22:11;100603.38;;;6.27;86.15
72558;BME280;60583;50.094;8.748;2022-11-14T00:24:36;100608.03;;;6.33;86.47
72558;BME280;60583;50.094;8.748;2022-11-14T00:27:02;100610.00;;;6.23;85.19
72558;BME280;60583;50.094;8.748;2022-11-14T00:29:27;100590.47;;;6.00;85.76
72558;BME280;60583;50.094;8.748;2022-11-14T00:31:52;100597.53;;;5.84;86.27
72558;BME280;60583;50.094;8.748;2022-11-14T00:34:18;100594.03;;;5.75;86.24
72558;BME280;60583;50.094;8.748;2022-11-14T00:36:43;100589.88;;;5.64;86.52
72558;BME280;60583;50.094;8.748;2022-11-14T00:39:13;100587.38;;;5.55;86.56
72558;BME280;60583;50.094;8.748;2022-11-14T00:41:39;100592.63;;;5.47;86.06
72558;BME280;60583;50.094;8.748;2022-11-14T00:44:05;100588.47;;;5.36;87.01
72558;BME280;60583;50.094;8.748;2022-11-14T00:46:31;100587.13;;;5.32;87.36
72558;BME280;60583;50.094;8.748;2022-11-14T00:48:56;100593.88;;;5.27;87.11
72558;BME280;60583;50.094;8.748;2022-11-14T00:51:22;100592.25;;;5.26;86.62
72558;BME280;60583;50.094;8.748;2022-11-14T00:53:47;100587.41;;;5.21;87.19
72558;BME280;60583;50.094;8.748;2022-11-14T00:56:12;100587.53;;;5.11;87.35
72558;BME280;60583;50.094;8.748;2022-11-14T00:58:38;100592.47;;;5.06;87.64
72558;BME280;60583;50.094;8.748;2022-11-14T01:01:03;100584.91;;;5.11;87.66
72558;BME280;60583;50.094;8.748;2022-11-14T01:03:29;100586.22;;;5.07;87.72
72558;BME280;60583;50.094;8.748;2022-11-14T01:05:54;100589.38;;;5.11;87.20
72558;BME280;60583;50.094;8.748;2022-11-14T01:08:20;100577.94;;;5.02;87.59
72558;BME280;60583;50.094;8.748;2022-11-14T01:10:49;100581.06;;;4.98;88.00
72558;BME280;60583;50.094;8.748;2022-11-14T01:13:15;100585.50;;;4.97;87.77
72558;BME280;60583;50.094;8.748;2022-11-14T01:15:43;100577.53;;;4.89;87.80
72558;BME280;60583;50.094;8.748;2022-11-14T01:18:10;100588.31;;;4.96;87.61
72558;BME280;60583;50.094;8.748;2022-11-14T01:20:44;100580.47;;;4.86;87.64
72558;BME280;60583;50.094;8.748;2022-11-14T01:23:11;100572.06;;;4.83;87.73
72558;BME280;60583;50.094;8.748;2022-11-14T01:25:37;100569.72;;;4.80;87.10
72558;BME280;60583;50.094;8.748;2022-11-14T01:28:21;100569.91;;;4.78;87.38
72558;BME280;60583;50.094;8.748;2022-11-14T01:30:46;100564.91;;;4.75;87.19
72558;BME280;60583;50.094;8.748;2022-11-14T01:33:12;100561.97;;;4.78;87.22
72558;BME280;60583;50.094;8.748;2022-11-14T01:35:37;100559.78;;;4.74;87.12
72558;BME280;60583;50.094;8.748;2022-11-14T01:38:04;100551.19;;;4.72;87.64
72558;BME280;60583;50.094;8.748;2022-11-14T01:40:30;100545.13;;;4.79;87.16
72558;BME280;60583;50.094;8.748;2022-11-14T01:43:22;100535.19;;;4.73;87.01
72558;BME280;60583;50.094;8.748;2022-11-14T01:46:07;100547.72;;;4.71;87.25
72558;BME280;60583;50.094;8.748;2022-11-14T01:48:46;100546.03;;;4.62;87.49
72558;BME280;60583;50.094;8.748;2022-11-14T01:53:43;100540.03;;;4.52;88.12
72558;BME280;60583;50.094;8.748;2022-11-14T01:56:11;100528.69;;;4.34;88.35
72558;BME280;60583;50.094;8.748;2022-11-14T01:58:41;100530.81;;;4.30;89.23
72558;BME280;60583;50.094;8.748;2022-11-14T02:01:08;100526.97;;;4.25;88.55
72558;BME280;60583;50.094;8.748;2022-11-14T02:03:37;100535.44;;;4.11;89.29
72558;BME280;60583;50.094;8.748;2022-11-14T02:06:05;100534.50;;;3.94;90.87
72558;BME280;60583;50.094;8.748;2022-11-14T02:08:32;100529.22;;;3.94;90.85
72558;BME280;60583;50.094;8.748;2022-11-14T02:10:58;100523.84;;;4.04;90.55
72558;BME280;60583;50.094;8.748;2022-11-14T02:13:23;100514.97;;;4.05;90.84
72558;BME280;60583;50.094;8.748;2022-11-14T02:15:49;100519.78;;;3.92;91.20
72558;BME280;60583;50.094;8.748;2022-11-14T02:18:15;100509.91;;;3.94;90.97
72558;BME280;60583;50.094;8.748;2022-11-14T02:20:40;100510.28;;;3.99;90.07
72558;BME280;60583;50.094;8.748;2022-11-14T02:23:09;100517.06;;;4.01;89.68
72558;BME280;60583;50.094;8.748;2022-11-14T02:25:35;100511.50;;;4.04;89.42
72558;BME280;60583;50.094;8.748;2022-11-14T02:28:01;100507.81;;;3.97;89.30
72558;BME280;60583;50.094;8.748;2022-11-14T02:30:26;100509.72;;;3.87;89.15
72558;BME280;60583;50.094;8.748;2022-11-14T02:32:52;100500.97;;;3.86;89.15
72558;BME280;60583;50.094;8.748;2022-11-14T02:35:17;100498.25;;;3.78;88.63
72558;BME280;60583;50.094;8.748;2022-11-14T02:37:43;100503.53;;;3.78;88.56
72558;BME280;60583;50.094;8.748;2022-11-14T02:40:08;100498.56;;;3.75;88.54
72558;BME280;60583;50.094;8.748;2022-11-14T02:42:34;100488.94;;;3.66;88.49
72558;BME280;60583;50.094;8.748;2022-11-14T02:45:00;100486.75;;;3.62;88.83
72558;BME280;60583;50.094;8.748;2022-11-14T02:47:25;100490.91;;;3.64;89.02
72558;BME280;60583;50.094;8.748;2022-11-14T02:49:51;100484.09;;;3.79;88.76
72558;BME280;60583;50.094;8.748;2022-11-14T02:52:16;100482.72;;;3.75;88.57
72558;BME280;60583;50.094;8.748;2022-11-14T02:54:42;100482.22;;;3.72;88.61
72558;BME280;60583;50.094;8.748;2022-11-14T02:57:07;100477.19;;;3.61;88.48
72558;BME280;60583;50.094;8.748;2022-11-14T02:59:33;100485.25;;;3.59;88.07
72558;BME280;60583;50.094;8.748;2022-11-14T03:01:58;100479.81;;;3.61;88.27
72558;BME280;60583;50.094;8.748;2022-11-14T03:04:24;100475.38;;;3.61;87.84
72558;BME280;60583;50.094;8.748;2022-11-14T03:06:49;100476.22;;;3.62;87.57
72558;BME280;60583;50.094;8.748;2022-11-14T03:09:14;100471.41;;;3.57;88.45
72558;BME280;60583;50.094;8.748;2022-11-14T03:11:40;100462.66;;;3.57;88.30
72558;BME280;60583;50.094;8.748;2022-11-14T03:14:05;100462.34;;;3.60;88.39
72558;BME280;60583;50.094;8.748;2022-11-14T03:16:30;100458.59;;;3.62;88.43
72558;BME280;60583;50.094;8.748;2022-11-14T03:18:56;100450.34;;;3.65;87.48
72558;BME280;60583;50.094;8.748;2022-11-14T03:21:22;100451.47;;;3.63;87.62
72558;BME280;60583;50.094;8.748;2022-11-14T03:23:47;100457.88;;;3.60;87.97
72558;BME280;60583;50.094;8.748;2022-11-14T03:26:14;100451.06;;;3.50;87.36
72558;BME280;60583;50.094;8.748;2022-11-14T03:28:41;100449.09;;;3.52;87.53
72558;BME280;60583;50.094;8.748;2022-11-14T03:31:07;100453.84;;;3.48;87.55
72558;BME280;60583;50.094;8.748;2022-11-14T03:33:34;100447.22;;;3.44;87.61
72558;BME280;60583;50.094;8.748;2022-11-14T03:36:01;100441.31;;;3.50;87.07
72558;BME280;60583;50.094;8.748;2022-11-14T03:38:26;100447.22;;;3.44;87.42
72558;BME280;60583;50.094;8.748;2022-11-14T03:40:52;100448.50;;;3.40;87.82
72558;BME280;60583;50.094;8.748;2022-11-14T03:43:19;100452.19;;;3.30;87.55
72558;BME280;60583;50.094;8.748;2022-11-14T03:45:46;100451.38;;;3.29;88.06
72558;BME280;60583;50.094;8.748;2022-11-14T03:48:11;100447.91;;;3.29;88.16
72558;BME280;60583;50.094;8.748;2022-11-14T03:50:37;100447.06;;;3.28;87.77
72558;BME280;60583;50.094;8.748;2022-11-14T03:53:03;100447.22;;;3.27;87.23
72558;BME280;60583;50.094;8.748;2022-11-14T03:55:28;100458.06;;;3.23;87.21
72558;BME280;60583;50.094;8.748;2022-11-14T03:57:53;100452.41;;;3.18;86.84
72558;BME280;60583;50.094;8.748;2022-11-14T04:00:19;100450.44;;;3.20;87.21
72558;BME280;60583;50.094;8.748;2022-11-14T04:02:44;100446.47;;;3.16;87.65
72558;BME280;60583;50.094;8.748;2022-11-14T04:05:10;100452.47;;;3.09;87.66
72558;BME280;60583;50.094;8.748;2022-11-14T04:07:36;100443.28;;;3.13;87.47
72558;BME280;60583;50.094;8.748;2022-11-14T04:10:01;100439.06;;;3.20;87.52
72558;BME280;60583;50.094;8.748;2022-11-14T04:12:27;100442.31;;;3.14;87.14
72558;BME280;60583;50.094;8.748;2022-11-14T04:14:52;100451.81;;;3.07;87.53
72558;BME280;60583;50.094;8.748;2022-11-14T04:17:17;100435.75;;;3.00;87.59
72558;BME280;60583;50.094;8.748;2022-11-14T04:19:43;100432.75;;;2.95;87.63
72558;BME280;60583;50.094;8.748;2022-11-14T04:22:08;100430.34;;;3.02;87.73
72558;BME280;60583;50.094;8.748;2022-11-14T04:24:34;100434.03;;;3.09;87.22
72558;BME280;60583;50.094;8.748;2022-11-14T04:26:59;100422.69;;;3.26;86.60
72558;BME280;60583;50.094;8.748;2022-11-14T04:29:24;100428.16;;;3.15;86.99
72558;BME280;60583;50.094;8.748;2022-11-14T04:31:50;100434.19;;;3.07;87.50
72558;BME280;60583;50.094;8.748;2022-11-14T04:34:15;100420.03;;;3.08;87.33
72558;BME280;60583;50.094;8.748;2022-11-14T04:36:41;100429.28;;;3.12;87.22
72558;BME280;60583;50.094;8.748;2022-11-14T04:39:06;100413.84;;;3.00;87.52
72558;BME280;60583;50.094;8.748;2022-11-14T04:41:32;100425.47;;;3.07;87.62
72558;BME280;60583;50.094;8.748;2022-11-14T04:43:57;100428.22;;;2.88;88.14
72558;BME280;60583;50.094;8.748;2022-11-14T04:46:22;100427.00;;;2.82;88.60
72558;BME280;60583;50.094;8.748;2022-11-14T04:48:48;100434.97;;;2.73;88.37
72558;BME280;60583;50.094;8.748;2022-11-14T04:51:13;100426.69;;;2.68;88.83
72558;BME280;60583;50.094;8.748;2022-11-14T04:53:38;100433.72;;;2.77;88.95
72558;BME280;60583;50.094;8.748;2022-11-14T04:56:04;100433.53;;;2.78;88.73
72558;BME280;60583;50.094;8.748;2022-11-14T04:58:30;100445.44;;;2.82;89.09
72558;BME280;60583;50.094;8.748;2022-11-14T05:00:55;100434.44;;;2.69;89.24
72558;BME280;60583;50.094;8.748;2022-11-14T05:03:22;100437.31;;;2.76;89.19
72558;BME280;60583;50.094;8.748;2022-11-14T05:05:48;100436.28;;;2.86;89.25
72558;BME280;60583;50.094;8.748;2022-11-14T05:08:13;100434.16;;;2.90;88.85
72558;BME280;60583;50.094;8.748;2022-11-14T05:10:42;100432.00;;;3.03;88.91
72558;BME280;60583;50.094;8.748;2022-11-14T05:13:08;100430.00;;;3.14;88.49
72558;BME280;60583;50.094;8.748;2022-11-14T05:15:34;100411.22;;;3.17;88.21
72558;BME280;60583;50.094;8.748;2022-11-14T05:17:59;100426.53;;;3.32;88.09
72558;BME280;60583;50.094;8.748;2022-11-14T05:20:25;100429.16;;;3.14;88.74
72558;BME280;60583;50.094;8.748;2022-11-14T05:22:52;100414.47;;;3.11;89.02
72558;BME280;60583;50.094;8.748;2022-11-14T05:25:18;100405.59;;;3.12;89.12
72558;BME280;60583;50.094;8.748;2022-11-14T05:27:43;100422.16;;;3.22;89.13
72558;BME280;60583;50.094;8.748;2022-11-14T05:30:09;100414.41;;;3.21;89.19
72558;BME280;60583;50.094;8.748;2022-11-14T05:32:35;100414.41;;;3.21;88.84
72558;BME280;60583;50.094;8.748;2022-11-14T05:35:00;100416.50;;;3.35;88.90
72558;BME280;60583;50.094;8.748;2022-11-14T05:37:25;100419.81;;;3.37;88.52
72558;BME280;60583;50.094;8.748;2022-11-14T05:39:51;100420.78;;;3.36;88.87
72558;BME280;60583;50.094;8.748;2022-11-14T05:42:16;100429.44;;;3.46;88.71
72558;BME280;60583;50.094;8.748;2022-11-14T05:44:41;100424.19;;;3.46;88.86
72558;BME280;60583;50.094;8.748;2022-11-14T05:47:07;100413.81;;;3.45;89.35
72558;BME280;60583;50.094;8.748;2022-11-14T05:49:32;100424.25;;;3.54;89.92
72558;BME280;60583;50.094;8.748;2022-11-14T05:51:57;100415.94;;;3.67;89.08
72558;BME280;60583;50.094;8.748;2022-11-14T05:54:23;100422.69;;;3.87;91.69
72558;BME280;60583;50.094;8.748;2022-11-14T05:56:48;100420.66;;;4.07;91.95
72558;BME280;60583;50.094;8.748;2022-11-14T05:59:13;100421.72;;;4.22;92.08
72558;BME280;60583;50.094;8.748;2022-11-14T06:01:39;100418.63;;;4.26;91.19
72558;BME280;60583;50.094;8.748;2022-11-14T06:04:05;100428.03;;;4.29;90.99
72558;BME280;60583;50.094;8.748;2022-11-14T06:06:30;100430.84;;;4.27;90.52
72558;BME280;60583;50.094;8.748;2022-11-14T06:08:56;100436.59;;;4.23;90.84
72558;BME280;60583;50.094;8.748;2022-11-14T06:11:21;100431.97;;;4.25;90.77
72558;BME280;60583;50.094;8.748;2022-11-14T06:13:47;100436.72;;;4.21;91.92
72558;BME280;60583;50.094;8.748;2022-11-14T06:16:15;100445.53;;;4.30;92.22
72558;BME280;60583;50.094;8.748;2022-11-14T06:18:40;100441.28;;;4.37;91.67
72558;BME280;60583;50.094;8.748;2022-11-14T06:21:12;100430.91;;;4.43;92.16
72558;BME280;60583;50.094;8.748;2022-11-14T06:23:38;100419.19;;;4.46;92.44
72558;BME280;60583;50.094;8.748;2022-11-14T06:26:06;100429.66;;;4.56;92.06
72558;BME280;60583;50.094;8.748;2022-11-14T06:28:33;100428.88;;;4.63;91.71
72558;BME280;60583;50.094;8.748;2022-11-14T06:31:02;100435.28;;;4.61;92.14
72558;BME280;60583;50.094;8.748;2022-11-14T06:33:32;100434.94;;;4.64;92.46
72558;BME280;60583;50.094;8.748;2022-11-14T06:35:58;100438.28;;;4.74;93.28
72558;BME280;60583;50.094;8.748;2022-11-14T06:38:25;100444.25;;;4.84;93.06
72558;BME280;60583;50.094;8.748;2022-11-14T06:40:50;100435.84;;;4.80;92.09
72558;BME280;60583;50.094;8.748;2022-11-14T06:43:16;100428.28;;;4.85;92.54
72558;BME280;60583;50.094;8.748;2022-11-14T06:45:41;100409.13;;;4.91;92.26
72558;BME280;60583;50.094;8.748;2022-11-14T06:48:07;100403.88;;;5.07;91.98
72558;BME280;60583;50.094;8.748;2022-11-14T06:50:32;100409.81;;;5.01;92.01
72558;BME280;60583;50.094;8.748;2022-11-14T06:52:58;100409.81;;;5.01;92.25
72558;BME280;60583;50.094;8.748;2022-11-14T06:55:24;100415.91;;;5.02;92.63
72558;BME280;60583;50.094;8.748;2022-11-14T06:57:53;100415.44;;;4.98;92.56
72558;BME280;60583;50.094;8.748;2022-11-14T07:00:19;100412.31;;;5.03;92.71
72558;BME280;60583;50.094;8.748;2022-11-14T07:02:45;100412.44;;;5.01;93.22
72558;BME280;60583;50.094;8.748;2022-11-14T07:05:11;100407.84;;;5.03;93.68
72558;BME280;60583;50.094;8.748;2022-11-14T07:07:36;100415.78;;;5.20;94.67
72558;BME280;60583;50.094;8.748;2022-11-14T07:10:01;100411.50;;;5.43;96.08
72558;BME280;60583;50.094;8.748;2022-11-14T07:12:27;100411.34;;;5.52;94.10
72558;BME280;60583;50.094;8.748;2022-11-14T07:14:53;100406.56;;;5.56;93.23
72558;BME280;60583;50.094;8.748;2022-11-14T07:17:19;100418.28;;;5.61;93.91
72558;BME280;60583;50.094;8.748;2022-11-14T07:19:44;100427.53;;;5.65;93.36
72558;BME280;60583;50.094;8.748;2022-11-14T07:22:10;100418.44;;;5.76;93.53
72558;BME280;60583;50.094;8.748;2022-11-14T07:24:35;100422.06;;;5.83;93.17
72558;BME280;60583;50.094;8.748;2022-11-14T07:27:00;100428.34;;;5.74;92.44
72558;BME280;60583;50.094;8.748;2022-11-14T07:29:26;100440.13;;;5.63;92.18
72558;BME280;60583;50.094;8.748;2022-11-14T07:31:52;100443.56;;;5.64;92.20
72558;BME280;60583;50.094;8.748;2022-11-14T07:34:17;100442.75;;;5.55;92.43
72558;BME280;60583;50.094;8.748;2022-11-14T07:36:43;100453.81;;;5.59;92.37
72558;BME280;60583;50.094;8.748;2022-11-14T07:39:09;100448.03;;;5.47;93.33
72558;BME280;60583;50.094;8.748;2022-11-14T07:41:34;100427.72;;;5.48;92.85
72558;BME280;60583;50.094;8.748;2022-11-14T07:43:59;100438.75;;;5.51;93.17
72558;BME280;60583;50.094;8.748;2022-11-14T07:46:25;100447.22;;;5.63;92.51
72558;BME280;60583;50.094;8.748;2022-11-14T07:48:51;100447.88;;;5.57;92.67
72558;BME280;60583;50.094;8.748;2022-11-14T07:51:19;100449.34;;;5.59;92.81
72558;BME280;60583;50.094;8.748;2022-11-14T07:53:44;100443.09;;;5.60;93.02
72558;BME280;60583;50.094;8.748;2022-11-14T07:56:10;100452.50;;;5.63;92.52
72558;BME280;60583;50.094;8.748;2022-11-14T07:58:40;100437.47;;;5.63;92.70
72558;BME280;60583;50.094;8.748;2022-11-14T08:01:06;100429.03;;;5.68;92.61
72558;BME280;60583;50.094;8.748;2022-11-14T08:03:33;100430.66;;;5.77;92.27
72558;BME280;60583;50.094;8.748;2022-11-14T08:06:03;100427.19;;;5.76;92.07
72558;BME280;60583;50.094;8.748;2022-11-14T08:08:29;100439.75;;;5.82;92.33
72558;BME280;60583;50.094;8.748;2022-11-14T08:10:56;100438.28;;;5.80;92.38
72558;BME280;60583;50.094;8.748;2022-11-14T08:13:22;100454.47;;;5.77;92.69
72558;BME280;60583;50.094;8.748;2022-11-14T08:15:48;100444.41;;;5.72;92.77
72558;BME280;60583;50.094;8.748;2022-11-14T08:18:13;100440.75;;;5.81;93.07
72558;BME280;60583;50.094;8.748;2022-11-14T08:20:38;100447.88;;;5.89;92.79
72558;BME280;60583;50.094;8.748;2022-11-14T08:23:05;100438.97;;;5.90;92.76
72558;BME280;60583;50.094;8.748;2022-11-14T08:25:31;100437.44;;;5.79;93.12
72558;BME280;60583;50.094;8.748;2022-11-14T08:27:57;100445.22;;;5.81;93.16
72558;BME280;60583;50.094;8.748;2022-11-14T08:30:22;100439.44;;;5.77;93.07
72558;BME280;60583;50.094;8.748;2022-11-14T08:32:48;100436.63;;;5.79;93.73
72558;BME280;60583;50.094;8.748;2022-11-14T08:35:13;100431.00;;;5.82;93.53
72558;BME280;60583;50.094;8.748;2022-11-14T08:37:39;100435.31;;;5.83;93.04
72558;BME280;60583;50.094;8.748;2022-11-14T08:40:04;100431.84;;;5.91;93.38
72558;BME280;60583;50.094;8.748;2022-11-14T08:42:30;100427.22;;;5.93;93.22
72558;BME280;60583;50.094;8.748;2022-11-14T08:44:56;100433.50;;;6.00;92.34
72558;BME280;60583;50.094;8.748;2022-11-14T08:47:21;100440.44;;;6.01;92.90
72558;BME280;60583;50.094;8.748;2022-11-14T08:49:46;100448.53;;;6.07;93.08
72558;BME280;60583;50.094;8.748;2022-11-14T08:52:12;100449.03;;;6.03;92.88
72558;BME280;60583;50.094;8.748;2022-11-14T08:54:37;100449.53;;;6.06;92.42
72558;BME280;60583;50.094;8.748;2022-11-14T08:57:03;100457.13;;;6.09;92.49
72558;BME280;60583;50.094;8.748;2022-11-14T08:59:30;100464.25;;;6.09;92.26
72558;BME280;60583;50.094;8.748;2022-11-14T09:01:55;100459.63;;;6.03;92.48
72558;BME280;60583;50.094;8.748;2022-11-14T09:04:27;100461.63;;;6.01;92.02
72558;BME280;60583;50.094;8.748;2022-11-14T09:06:52;100474.66;;;6.02;91.79
72558;BME280;60583;50.094;8.748;2022-11-14T09:09:18;100474.50;;;6.12;92.04
72558;BME280;60583;50.094;8.748;2022-11-14T09:11:43;100461.44;;;6.18;92.25
72558;BME280;60583;50.094;8.748;2022-11-14T09:14:08;100460.59;;;6.26;91.23
72558;BME280;60583;50.094;8.748;2022-11-14T09:16:34;100466.97;;;6.39;90.77
72558;BME280;60583;50.094;8.748;2022-11-14T09:18:59;100461.03;;;6.46;90.25
72558;BME280;60583;50.094;8.748;2022-11-14T09:21:25;100454.53;;;6.56;89.43
72558;BME280;60583;50.094;8.748;2022-11-14T09:23:50;100454.00;;;6.69;89.39
72558;BME280;60583;50.094;8.748;2022-11-14T09:26:16;100452.97;;;6.70;89.04
72558;BME280;60583;50.094;8.748;2022-11-14T09:28:45;100448.69;;;6.69;88.66
72558;BME280;60583;50.094;8.748;2022-11-14T09:31:11;100454.16;;;6.67;88.69
72558;BME280;60583;50.094;8.748;2022-11-14T09:33:37;100455.31;;;6.65;88.99
72558;BME280;60583;50.094;8.748;2022-11-14T09:36:05;100445.28;;;6.91;90.23
72558;BME280;60583;50.094;8.748;2022-11-14T09:38:31;100431.94;;;6.76;88.59
72558;BME280;60583;50.094;8.748;2022-11-14T09:41:26;100429.75;;;6.80;88.42
72558;BME280;60583;50.094;8.748;2022-11-14T09:46:43;100440.63;;;6.93;87.34
72558;BME280;60583;50.094;8.748;2022-11-14T09:49:26;100427.97;;;7.03;86.81
72558;BME280;60583;50.094;8.748;2022-11-14T09:52:00;100430.03;;;7.16;85.62
72558;BME280;60583;50.094;8.748;2022-11-14T09:54:38;100410.16;;;7.80;84.45
72558;BME280;60583;50.094;8.748;2022-11-14T09:57:14;100409.63;;;8.86;78.66
72558;BME280;60583;50.094;8.748;2022-11-14T09:59:41;100413.34;;;9.70;75.32
72558;BME280;60583;50.094;8.748;2022-11-14T10:08:13;100398.03;;;11.81;65.59
72558;BME280;60583;50.094;8.748;2022-11-14T10:10:57;100384.94;;;13.08;61.91
72558;BME280;60583;50.094;8.748;2022-11-14T10:13:48;100382.72;;;13.85;58.72
72558;BME280;60583;50.094;8.748;2022-11-14T10:16:25;100397.78;;;13.86;57.81
72558;BME280;60583;50.094;8.748;2022-11-14T10:19:17;100380.69;;;14.96;54.59
72558;BME280;60583;50.094;8.748;2022-11-14T10:21:56;100374.28;;;16.03;51.88
72558;BME280;60583;50.094;8.748;2022-11-14T10:24:57;100372.06;;;14.76;53.91
72558;BME280;60583;50.094;8.748;2022-11-14T10:27:28;100372.50;;;14.73;54.80
72558;BME280;60583;50.094;8.748;2022-11-14T10:30:12;100352.91;;;15.44;52.56
72558;BME280;60583;50.094;8.748;2022-11-14T10:35:52;100362.66;;;16.37;49.47
72558;BME280;60583;50.094;8.748;2022-11-14T10:38:38;100364.00;;;16.00;50.44
72558;BME280;60583;50.094;8.748;2022-11-14T10:41:08;100382.97;;;13.84;56.35
72558;BME280;60583;50.094;8.748;2022-11-14T10:46:15;100359.03;;;13.82;56.72
72558;BME280;60583;50.094;8.748;2022-11-14T10:48:43;100360.59;;;12.71;60.77
72558;BME280;60583;50.094;8.748;2022-11-14T10:51:19;100362.47;;;11.94;63.38
72558;BME280;60583;50.094;8.748;2022-11-14T10:56:54;100354.41;;;11.15;66.90
72558;BME280;60583;50.094;8.748;2022-11-14T10:59:20;100342.16;;;11.47;66.48
72558;BME280;60583;50.094;8.748;2022-11-14T11:04:24;100337.81;;;11.66;65.96
72558;BME280;60583;50.094;8.748;2022-11-14T11:06:54;100338.63;;;11.33;66.96
72558;BME280;60583;50.094;8.748;2022-11-14T11:09:27;100336.78;;;11.53;66.79
72558;BME280;60583;50.094;8.748;2022-11-14T11:12:20;100318.00;;;13.08;62.20
72558;BME280;60583;50.094;8.748;2022-11-14T11:14:48;100310.88;;;14.96;55.83
72558;BME280;60583;50.094;8.748;2022-11-14T11:17:20;100312.31;;;15.10;54.39
72558;BME280;60583;50.094;8.748;2022-11-14T11:19:47;100297.00;;;14.99;55.07
72558;BME280;60583;50.094;8.748;2022-11-14T11:22:36;100288.47;;;15.02;54.60
72558;BME280;60583;50.094;8.748;2022-11-14T11:25:21;100294.28;;;15.87;52.96
72558;BME280;60583;50.094;8.748;2022-11-14T11:28:02;100307.81;;;14.63;55.13
72558;BME280;60583;50.094;8.748;2022-11-14T11:30:28;100304.03;;;13.55;58.92
72558;BME280;60583;50.094;8.748;2022-11-14T11:32:53;100307.59;;;12.93;61.41
72558;BME280;60583;50.094;8.748;2022-11-14T11:35:19;100302.28;;;12.42;62.72
72558;BME280;60583;50.094;8.748;2022-11-14T11:37:48;100282.38;;;12.32;64.10
72558;BME280;60583;50.094;8.748;2022-11-14T11:40:22;100283.72;;;14.08;57.75
72558;BME280;60583;50.094;8.748;2022-11-14T11:42:50;100277.44;;;14.33;56.82
72558;BME280;60583;50.094;8.748;2022-11-14T11:45:19;100274.69;;;13.67;59.00
72558;BME280;60583;50.094;8.748;2022-11-14T11:47:53;100278.78;;;15.01;55.08
72558;BME280;60583;50.094;8.748;2022-11-14T11:50:20;100279.69;;;14.65;56.27
72558;BME280;60583;50.094;8.748;2022-11-14T11:53:11;100271.47;;;16.13;51.94
72558;BME280;60583;50.094;8.748;2022-11-14T11:55:45;100268.06;;;14.24;56.71
72558;BME280;60583;50.094;8.748;2022-11-14T11:58:21;100272.94;;;13.29;60.28
72558;BME280;60583;50.094;8.748;2022-11-14T12:00:50;100273.59;;;12.62;62.69
72558;BME280;60583;50.094;8.748;2022-11-14T12:03:17;100268.56;;;12.41;63.52
72558;BME280;60583;50.094;8.748;2022-11-14T12:08:23;100276.31;;;11.98;66.24
72558;BME280;60583;50.094;8.748;2022-11-14T12:10:51;100277.63;;;11.83;67.17
72558;BME280;60583;50.094;8.748;2022-11-14T12:18:53;100271.56;;;12.13;65.99
72558;BME280;60583;50.094;8.748;2022-11-14T12:21:33;100268.88;;;12.20;65.86
72558;BME280;60583;50.094;8.748;2022-11-14T12:30:08;100276.47;;;12.23;66.45
72558;BME280;60583;50.094;8.748;2022-11-14T12:32:57;100274.50;;;12.50;65.20
72558;BME280;60583;50.094;8.748;2022-11-14T12:35:33;100257.19;;;12.08;67.01
72558;BME280;60583;50.094;8.748;2022-11-14T12:38:03;100280.31;;;11.83;68.02
72558;BME280;60583;50.094;8.748;2022-11-14T12:40:50;100258.94;;;11.43;69.72
72558;BME280;60583;50.094;8.748;2022-11-14T12:43:37;100261.66;;;11.37;70.39
72558;BME280;60583;50.094;8.748;2022-11-14T12:46:06;100270.06;;;11.27;71.08
72558;BME280;60583;50.094;8.748;2022-11-14T12:48:35;100261.22;;;11.20;71.59
72558;BME280;60583;50.094;8.748;2022-11-14T12:51:04;100257.31;;;11.23;71.79
72558;BME280;60583;50.094;8.748;2022-11-14T12:58:53;100246.66;;;11.16;72.01
72558;BME280;60583;50.094;8.748;2022-11-14T13:04:25;100233.72;;;11.07;73.25
72558;BME280;60583;50.094;8.748;2022-11-14T13:07:06;100234.97;;;11.04;73.07
72558;BME280;60583;50.094;8.748;2022-11-14T13:09:53;100237.63;;;11.04;73.32
72558;BME280;60583;50.094;8.748;2022-11-14T13:12:33;100235.78;;;10.98;73.52
72558;BME280;60583;50.094;8.748;2022-11-14T13:15:29;100236.41;;;10.87;74.47
72558;BME280;60583;50.094;8.748;2022-11-14T13:24:04;100238.03;;;10.81;75.24
72558;BME280;60583;50.094;8.748;2022-11-14T13:28:55;100219.13;;;10.70;76.17
72558;BME280;60583;50.094;8.748;2022-11-14T13:43:21;100213.75;;;10.44;80.13
72558;BME280;60583;50.094;8.748;2022-11-14T13:46:06;100209.84;;;10.40;80.88
72558;BME280;60583;50.094;8.748;2022-11-14T13:48:51;100207.19;;;10.46;80.40
72558;BME280;60583;50.094;8.748;2022-11-14T13:51:21;100203.50;;;10.41;81.03
72558;BME280;60583;50.094;8.748;2022-11-14T13:53:49;100203.50;;;10.34;81.71
72558;BME280;60583;50.094;8.748;2022-11-14T14:10:29;100188.91;;;10.23;82.85
72558;BME280;60583;50.094;8.748;2022-11-14T14:13:19;100189.13;;;10.29;82.78
72558;BME280;60583;50.094;8.748;2022-11-14T14:16:15;100192.84;;;10.34;82.67
72558;BME280;60583;50.094;8.748;2022-11-14T14:21:17;100195.50;;;10.34;81.82
72558;BME280;60583;50.094;8.748;2022-11-14T14:26:29;100183.41;;;10.38;82.03
72558;BME280;60583;50.094;8.748;2022-11-14T14:29:02;100188.50;;;10.40;82.37